createdAt,value
2018-04-08T00:00:28.495Z,16.71
2018-04-08T00:02:56.768Z,16.73
2018-04-08T00:05:25.066Z,16.73
2018-04-08T00:07:54.268Z,16.74
2018-04-08T00:10:22.716Z,16.76
2018-04-08T00:12:51.904Z,16.76
2018-04-08T00:15:21.004Z,16.77
2018-04-08T00:17:50.432Z,16.76
2018-04-08T00:20:19.104Z,16.76
2018-04-08T00:22:47.552Z,16.76
2018-04-08T00:25:15.961Z,16.76
2018-04-08T00:27:45.091Z,16.75
2018-04-08T00:30:13.597Z,16.73
2018-04-08T00:32:41.896Z,16.76
2018-04-08T00:35:10.191Z,16.77
2018-04-08T00:37:39.229Z,16.73
2018-04-08T00:40:07.661Z,16.73
2018-04-08T00:42:36.010Z,16.74
2018-04-08T00:45:04.735Z,16.74
2018-04-08T00:47:33.867Z,16.74
2018-04-08T00:50:02.513Z,16.69
2018-04-08T00:52:31.920Z,16.73
2018-04-08T00:55:01.173Z,16.74
2018-04-08T00:57:29.711Z,16.77
2018-04-08T00:59:58.900Z,16.77
2018-04-08T01:02:28.087Z,16.74
2018-04-08T01:04:56.459Z,16.73
2018-04-08T01:07:25.651Z,16.72
2018-04-08T01:09:54.088Z,16.71
2018-04-08T01:12:22.360Z,16.66
2018-04-08T01:14:50.721Z,16.69
2018-04-08T01:17:19.899Z,16.67
2018-04-08T01:19:48.248Z,16.63
2018-04-08T01:22:16.554Z,16.59
2018-04-08T01:24:44.988Z,16.63
2018-04-08T01:27:13.300Z,16.56
2018-04-08T01:29:41.860Z,16.56
2018-04-08T01:32:10.636Z,16.51
2018-04-08T01:34:44.024Z,16.50
2018-04-08T01:37:12.436Z,16.48
2018-04-08T01:39:41.100Z,16.46
2018-04-08T01:42:09.476Z,16.44
2018-04-08T01:44:37.777Z,16.41
2018-04-08T01:47:06.352Z,16.38
2018-04-08T01:49:34.667Z,16.35
2018-04-08T01:52:03.731Z,16.31
2018-04-08T01:54:32.125Z,16.32
2018-04-08T01:57:00.436Z,16.30
2018-04-08T01:59:29.559Z,16.25
2018-04-08T02:01:57.800Z,16.23
2018-04-08T02:04:26.972Z,16.19
2018-04-08T02:06:55.397Z,16.19
2018-04-08T02:09:23.905Z,16.15
2018-04-08T02:11:52.419Z,16.09
2018-04-08T02:14:20.701Z,16.10
2018-04-08T02:16:49.586Z,16.05
2018-04-08T02:19:18.014Z,16.00
2018-04-08T02:21:46.277Z,15.99
2018-04-08T02:24:15.523Z,15.95
2018-04-08T02:26:44.258Z,15.92
2018-04-08T02:29:13.323Z,15.89
2018-04-08T02:31:41.792Z,15.82
2018-04-08T02:34:10.085Z,15.80
2018-04-08T02:36:38.387Z,15.76
2018-04-08T02:39:07.725Z,15.73
2018-04-08T02:41:36.141Z,15.71
2018-04-08T02:44:04.660Z,15.70
2018-04-08T02:46:33.173Z,15.70
2018-04-08T02:49:01.754Z,15.73
2018-04-08T02:51:30.087Z,15.74
2018-04-08T02:53:58.420Z,15.77
2018-04-08T02:56:27.090Z,15.74
2018-04-08T02:58:55.391Z,15.75
2018-04-08T03:01:24.018Z,15.75
2018-04-08T03:03:52.724Z,15.77
2018-04-08T03:06:20.958Z,15.81
2018-04-08T03:08:51.048Z,15.80
2018-04-08T03:11:19.477Z,15.80
2018-04-08T03:13:48.770Z,15.83
2018-04-08T03:16:17.107Z,15.88
2018-04-08T03:18:45.361Z,15.91
2018-04-08T03:21:13.736Z,15.89
2018-04-08T03:23:42.013Z,15.92
2018-04-08T03:26:10.304Z,15.91
2018-04-08T03:28:38.559Z,15.91
2018-04-08T03:31:07.452Z,15.89
2018-04-08T03:33:35.761Z,15.91
2018-04-08T03:36:04.059Z,15.92
2018-04-08T03:38:32.776Z,15.94
2018-04-08T03:41:01.192Z,15.93
2018-04-08T03:43:29.649Z,15.94
2018-04-08T03:45:58.952Z,15.93
2018-04-08T03:48:27.211Z,15.90
2018-04-08T03:50:55.628Z,15.88
2018-04-08T03:53:23.972Z,15.83
2018-04-08T03:55:53.083Z,15.82
2018-04-08T03:58:21.476Z,15.82
2018-04-08T04:00:49.926Z,15.87
2018-04-08T04:03:18.175Z,15.94
2018-04-08T04:05:47.147Z,15.99
2018-04-08T04:08:15.689Z,16.03
2018-04-08T04:10:45.258Z,16.07
2018-04-08T04:13:14.279Z,16.09
2018-04-08T04:15:43.505Z,16.13
2018-04-08T04:18:25.407Z,16.14
2018-04-08T04:24:15.563Z,16.18
2018-04-08T04:26:44.006Z,16.21
2018-04-08T04:29:12.340Z,16.26
2018-04-08T04:31:40.868Z,16.24
2018-04-08T04:34:09.215Z,16.26
2018-04-08T04:36:38.628Z,16.24
2018-04-08T04:39:07.252Z,16.23
2018-04-08T04:41:35.572Z,16.24
2018-04-08T04:44:04.807Z,16.21
2018-04-08T04:46:33.198Z,16.19
2018-04-08T04:49:01.480Z,16.17
2018-04-08T04:51:29.744Z,16.16
2018-04-08T04:53:58.044Z,16.18
2018-04-08T04:56:26.519Z,16.18
2018-04-08T04:58:54.997Z,16.16
2018-04-08T05:01:23.564Z,16.16
2018-04-08T05:03:51.882Z,16.15
2018-04-08T05:06:20.145Z,16.18
2018-04-08T05:08:48.860Z,16.17
2018-04-08T05:11:17.132Z,16.16
2018-04-08T05:13:45.795Z,16.13
2018-04-08T05:16:14.363Z,16.14
2018-04-08T05:18:42.808Z,16.14
2018-04-08T05:21:11.904Z,16.13
2018-04-08T05:23:40.557Z,16.12
2018-04-08T05:26:09.555Z,16.14
2018-04-08T05:28:37.880Z,16.14
2018-04-08T05:31:06.187Z,16.17
2018-04-08T05:33:34.752Z,16.17
2018-04-08T05:36:03.184Z,16.18
2018-04-08T05:38:31.464Z,16.18
2018-04-08T05:41:00.679Z,16.21
2018-04-08T05:43:29.143Z,16.25
2018-04-08T05:45:58.512Z,16.26
2018-04-08T05:48:26.795Z,16.30
2018-04-08T05:50:55.211Z,16.32
2018-04-08T05:53:24.265Z,16.38
2018-04-08T05:55:52.524Z,16.41
2018-04-08T05:58:20.802Z,16.42
2018-04-08T06:00:49.556Z,16.45
2018-04-08T06:03:18.947Z,16.47
2018-04-08T06:05:47.937Z,16.48
2018-04-08T06:08:17.395Z,16.53
2018-04-08T06:10:45.736Z,16.56
2018-04-08T06:13:14.435Z,16.65
2018-04-08T06:15:42.955Z,16.74
2018-04-08T06:18:11.513Z,16.82
2018-04-08T06:20:40.124Z,16.88
2018-04-08T06:23:08.671Z,16.98
2018-04-08T06:25:37.227Z,17.06
2018-04-08T06:28:06.423Z,17.12
2018-04-08T06:30:35.972Z,17.17
2018-04-08T06:33:04.459Z,17.24
2018-04-08T06:35:32.931Z,17.30
2018-04-08T06:38:01.260Z,17.33
2018-04-08T06:40:29.866Z,17.37
2018-04-08T06:42:58.981Z,17.39
2018-04-08T06:45:27.381Z,17.42
2018-04-08T06:47:55.872Z,17.48
2018-04-08T06:50:24.219Z,17.51
2018-04-08T06:52:52.499Z,17.56
2018-04-08T06:55:20.992Z,17.60
2018-04-08T06:57:49.291Z,17.58
2018-04-08T07:00:18.010Z,17.57
2018-04-08T07:02:46.464Z,17.58
2018-04-08T07:05:14.966Z,17.60
2018-04-08T07:07:44.193Z,17.61
2018-04-08T07:10:13.032Z,17.68
2018-04-08T07:12:41.636Z,17.73
2018-04-08T07:15:10.467Z,17.79
2018-04-08T07:17:39.012Z,17.87
2018-04-08T07:20:07.773Z,17.85
2018-04-08T07:22:36.193Z,17.91
2018-04-08T07:25:05.968Z,18.00
2018-04-08T07:27:34.600Z,18.07
2018-04-08T07:30:03.327Z,18.15
2018-04-08T07:32:31.677Z,18.24
2018-04-08T07:35:00.407Z,18.36
2018-04-08T07:37:28.931Z,18.52
2018-04-08T07:39:58.007Z,18.61
2018-04-08T07:42:26.640Z,18.78
2018-04-08T07:44:55.235Z,18.90
2018-04-08T07:47:23.529Z,19.04
2018-04-08T07:49:52.759Z,19.23
2018-04-08T07:52:22.123Z,19.34
2018-04-08T07:54:50.437Z,19.45
2018-04-08T07:57:19.546Z,19.60
2018-04-08T07:59:48.548Z,19.68
2018-04-08T08:02:16.877Z,19.80
2018-04-08T08:04:45.736Z,19.84
2018-04-08T08:07:16.414Z,19.92
2018-04-08T08:09:44.731Z,19.89
2018-04-08T08:12:13.186Z,19.87
2018-04-08T08:14:42.336Z,19.95
2018-04-08T08:17:10.711Z,19.87
2018-04-08T08:19:39.074Z,19.87
2018-04-08T08:22:07.755Z,19.85
2018-04-08T08:24:36.212Z,19.84
2018-04-08T08:27:05.394Z,19.85
2018-04-08T08:29:33.746Z,19.84
2018-04-08T08:32:02.500Z,19.87
2018-04-08T08:34:30.809Z,19.83
2018-04-08T08:36:59.476Z,19.80
2018-04-08T08:39:28.378Z,19.82
2018-04-08T08:41:56.806Z,19.86
2018-04-08T08:44:25.153Z,19.89
2018-04-08T08:46:53.432Z,19.92
2018-04-08T08:49:21.832Z,19.94
2018-04-08T08:51:50.152Z,20.09
2018-04-08T08:54:18.432Z,20.14
2018-04-08T08:56:46.811Z,20.19
2018-04-08T08:59:15.159Z,20.34
2018-04-08T09:01:43.714Z,20.49
2018-04-08T09:04:12.071Z,20.63
2018-04-08T09:06:40.513Z,20.75
2018-04-08T09:09:08.888Z,20.70
2018-04-08T09:11:37.920Z,20.86
2018-04-08T09:14:06.464Z,20.93
2018-04-08T09:16:35.928Z,21.08
2018-04-08T09:19:04.880Z,21.15
2018-04-08T09:21:33.398Z,21.29
2018-04-08T09:24:02.120Z,21.33
2018-04-08T09:26:30.776Z,21.27
2018-04-08T09:28:59.084Z,21.32
2018-04-08T09:31:28.176Z,21.26
2018-04-08T09:33:56.965Z,21.35
2018-04-08T09:36:25.291Z,21.59
2018-04-08T09:38:53.623Z,21.83
2018-04-08T09:41:22.272Z,21.99
2018-04-08T09:43:50.841Z,22.16
2018-04-08T09:46:19.198Z,22.25
2018-04-08T09:48:47.939Z,22.37
2018-04-08T09:51:16.393Z,22.29
2018-04-08T09:53:44.908Z,22.25
2018-04-08T09:56:13.387Z,22.23
2018-04-08T09:58:41.731Z,22.29
2018-04-08T10:01:14.909Z,22.31
2018-04-08T10:03:47.056Z,22.29
2018-04-08T10:06:16.191Z,22.35
2018-04-08T10:08:44.600Z,22.43
2018-04-08T10:11:12.916Z,22.40
2018-04-08T10:13:41.980Z,22.36
2018-04-08T10:16:10.543Z,22.34
2018-04-08T10:18:39.339Z,22.34
2018-04-08T10:21:07.696Z,22.34
2018-04-08T10:23:36.505Z,22.27
2018-04-08T10:26:04.844Z,22.14
2018-04-08T10:28:33.285Z,22.06
2018-04-08T10:31:03.348Z,22.04
2018-04-08T10:33:31.804Z,22.13
2018-04-08T10:36:00.896Z,22.12
2018-04-08T10:38:29.992Z,22.16
2018-04-08T10:40:58.548Z,22.21
2018-04-08T10:43:26.863Z,22.25
2018-04-08T10:45:55.993Z,22.30
2018-04-08T10:48:24.604Z,22.21
2018-04-08T10:50:53.764Z,22.24
2018-04-08T10:53:22.453Z,22.31
2018-04-08T10:55:50.825Z,22.47
2018-04-08T10:58:19.316Z,22.61
2018-04-08T11:00:47.711Z,22.78
2018-04-08T11:03:15.993Z,22.85
2018-04-08T11:05:44.469Z,22.93
2018-04-08T11:08:13.011Z,23.05
2018-04-08T11:10:42.317Z,23.16
2018-04-08T11:13:10.763Z,23.27
2018-04-08T11:15:39.132Z,23.28
2018-04-08T11:18:07.660Z,23.27
2018-04-08T11:20:36.192Z,23.36
2018-04-08T11:23:05.078Z,23.36
2018-04-08T11:25:33.529Z,23.35
2018-04-08T11:28:02.318Z,23.34
2018-04-08T11:30:30.600Z,23.45
2018-04-08T11:32:59.013Z,23.56
2018-04-08T11:35:27.792Z,23.61
2018-04-08T11:37:56.407Z,23.72
2018-04-08T11:40:24.758Z,23.84
2018-04-08T11:42:53.283Z,23.82
2018-04-08T11:45:22.978Z,23.94
2018-04-08T11:47:51.487Z,23.89
2018-04-08T11:50:20.169Z,24.04
2018-04-08T11:52:49.407Z,24.17
2018-04-08T11:55:17.659Z,24.19
2018-04-08T11:57:46.135Z,24.29
2018-04-08T12:00:14.557Z,24.20
2018-04-08T12:02:43.200Z,24.16
2018-04-08T12:05:11.674Z,24.22
2018-04-08T12:07:40.392Z,24.32
2018-04-08T12:10:08.889Z,24.30
2018-04-08T12:12:37.254Z,24.42
2018-04-08T12:15:05.771Z,24.51
2018-04-08T12:17:34.423Z,24.64
2018-04-08T12:20:03.017Z,24.66
2018-04-08T12:22:31.572Z,24.77
2018-04-08T12:25:00.043Z,24.90
2018-04-08T12:27:28.604Z,24.43
2018-04-08T13:21:14.530Z,25.06
2018-04-08T13:23:42.927Z,25.32
2018-04-08T13:26:12.170Z,25.60
2018-04-08T13:28:41.095Z,25.90
2018-04-08T13:31:09.634Z,26.11
2018-04-08T13:33:38.198Z,26.26
2018-04-08T13:36:07.331Z,26.28
2018-04-08T13:38:35.890Z,25.65
2018-04-08T13:41:04.522Z,25.57
2018-04-08T13:43:32.925Z,25.79
2018-04-08T13:46:01.312Z,25.87
2018-04-08T13:48:30.796Z,26.08
2018-04-08T13:50:59.080Z,26.08
2018-04-08T13:53:27.512Z,26.22
2018-04-08T13:55:55.831Z,26.40
2018-04-08T13:58:24.475Z,26.63
2018-04-08T14:00:53.239Z,26.61
2018-04-08T14:03:22.672Z,26.44
2018-04-08T14:05:51.090Z,26.69
2018-04-08T14:08:19.421Z,26.59
2018-04-08T14:10:47.912Z,26.63
2018-04-08T14:13:16.496Z,26.40
2018-04-08T14:15:44.835Z,26.11
2018-04-08T14:18:14.124Z,26.03
2018-04-08T14:20:42.653Z,26.08
2018-04-08T14:23:11.336Z,26.07
2018-04-08T14:25:40.053Z,26.21
2018-04-08T14:28:08.344Z,26.85
2018-04-08T14:30:36.763Z,27.18
2018-04-08T14:33:06.089Z,27.69
2018-04-08T14:35:34.632Z,27.10
2018-04-08T14:38:04.161Z,26.87
2018-04-08T14:40:32.724Z,26.82
2018-04-08T14:43:01.841Z,27.15
2018-04-08T14:45:30.308Z,27.34
2018-04-08T14:47:59.489Z,27.41
2018-04-08T14:50:28.647Z,27.31
2018-04-08T14:52:57.261Z,27.32
2018-04-08T14:55:25.901Z,27.15
2018-04-08T14:57:54.434Z,26.51
2018-04-08T15:00:22.981Z,26.43
2018-04-08T15:02:51.332Z,26.85
2018-04-08T15:05:19.660Z,26.52
2018-04-08T15:07:48.020Z,26.11
2018-04-08T15:10:16.381Z,25.65
2018-04-08T15:12:44.843Z,25.37
2018-04-08T15:15:13.314Z,25.08
2018-04-08T15:17:42.741Z,25.02
2018-04-08T15:20:11.044Z,24.82
2018-04-08T15:22:39.532Z,24.73
2018-04-08T15:25:08.316Z,24.81
2018-04-08T15:27:36.652Z,24.63
2018-04-08T15:30:05.191Z,24.68
2018-04-08T15:32:33.597Z,24.66
2018-04-08T15:35:02.684Z,24.51
2018-04-08T15:37:30.960Z,24.34
2018-04-08T15:39:59.770Z,24.32
2018-04-08T15:42:29.248Z,24.33
2018-04-08T15:44:57.848Z,24.35
2018-04-08T15:47:27.427Z,24.28
2018-04-08T15:49:55.737Z,24.34
2018-04-08T15:52:25.152Z,24.33
2018-04-08T15:54:53.587Z,24.31
2018-04-08T15:57:22.096Z,24.23
2018-04-08T15:59:51.184Z,24.18
2018-04-08T16:02:19.552Z,24.14
2018-04-08T16:04:48.402Z,24.06
2018-04-08T16:07:17.048Z,24.01
2018-04-08T16:09:46.384Z,23.98
2018-04-08T16:12:14.778Z,23.89
2018-04-08T16:14:43.484Z,23.90
2018-04-08T16:17:12.290Z,23.90
2018-04-08T16:19:40.768Z,23.89
2018-04-08T16:22:10.017Z,23.86
2018-04-08T16:24:38.419Z,23.81
2018-04-08T16:27:07.084Z,23.83
2018-04-08T16:29:36.085Z,23.73
2018-04-08T16:32:04.496Z,23.55
2018-04-08T16:34:32.813Z,23.50
2018-04-08T16:37:01.340Z,23.57
2018-04-08T16:39:30.452Z,23.73
2018-04-08T16:41:59.080Z,23.80
2018-04-08T16:44:28.624Z,23.67
2018-04-08T16:46:57.173Z,23.82
2018-04-08T16:49:26.488Z,23.71
2018-04-08T16:51:55.079Z,23.88
2018-04-08T16:54:23.737Z,23.93
2018-04-08T16:56:53.081Z,24.09
2018-04-08T16:59:21.444Z,24.22
2018-04-08T17:01:50.713Z,24.46
2018-04-08T17:04:19.832Z,24.64
2018-04-08T17:06:48.323Z,24.68
2018-04-08T17:09:17.034Z,24.38
2018-04-08T17:11:45.615Z,24.30
2018-04-08T17:14:14.072Z,24.33
2018-04-08T17:16:42.825Z,24.27
2018-04-08T17:19:12.099Z,24.16
2018-04-08T17:21:40.452Z,24.09
2018-04-08T17:24:10.727Z,24.05
2018-04-08T17:26:39.926Z,23.91
2018-04-08T17:29:09.081Z,23.79
2018-04-08T17:31:37.628Z,23.95
2018-04-08T17:34:06.318Z,23.93
2018-04-08T17:36:35.025Z,23.88
2018-04-08T17:39:04.660Z,23.85
2018-04-08T17:41:33.327Z,23.70
2018-04-08T17:44:01.769Z,23.63
2018-04-08T17:46:30.943Z,23.60
2018-04-08T17:48:59.577Z,23.54
2018-04-08T17:51:28.210Z,23.49
2018-04-08T17:53:56.573Z,23.42
2018-04-08T17:56:24.933Z,23.45
2018-04-08T17:58:53.252Z,23.34
2018-04-08T18:01:21.757Z,23.26
2018-04-08T18:03:51.130Z,23.08
2018-04-08T18:06:19.499Z,22.92
2018-04-08T18:08:48.036Z,22.98
2018-04-08T18:11:16.376Z,22.94
2018-04-08T18:13:44.704Z,22.80
2018-04-08T18:16:13.121Z,22.94
2018-04-08T18:18:41.934Z,23.05
2018-04-08T18:21:11.140Z,22.94
2018-04-08T18:23:40.366Z,22.88
2018-04-08T18:26:09.250Z,22.73
2018-04-08T18:28:37.547Z,22.65
2018-04-08T18:31:06.103Z,22.62
2018-04-08T18:33:34.659Z,22.66
2018-04-08T18:36:03.135Z,22.71
2018-04-08T18:38:31.524Z,22.61
2018-04-08T18:41:01.169Z,22.70
2018-04-08T18:43:29.945Z,22.55
2018-04-08T18:45:58.544Z,22.56
2018-04-08T18:48:26.901Z,22.36
2018-04-08T18:50:55.976Z,22.41
2018-04-08T18:53:24.270Z,22.45
2018-04-08T18:55:53.454Z,22.45
2018-04-08T18:58:22.682Z,22.27
2018-04-08T19:00:51.184Z,22.36
2018-04-08T19:03:19.764Z,22.26
2018-04-08T19:05:48.712Z,22.27
2018-04-08T19:08:18.249Z,22.27
2018-04-08T19:10:46.699Z,22.26
2018-04-08T19:13:16.144Z,22.21
2018-04-08T19:15:44.530Z,22.25
2018-04-08T19:18:13.132Z,22.19
2018-04-08T19:20:44.486Z,22.07
2018-04-08T19:23:12.833Z,22.01
2018-04-08T19:25:41.456Z,22.02
2018-04-08T19:28:10.108Z,21.92
2018-04-08T19:30:38.460Z,21.92
2018-04-08T19:33:06.917Z,21.80
2018-04-08T19:35:35.342Z,21.75
2018-04-08T19:38:03.689Z,21.53
2018-04-08T19:40:32.907Z,21.60
2018-04-08T19:43:01.433Z,21.62
2018-04-08T19:45:29.800Z,21.58
2018-04-08T19:47:58.293Z,21.52
2018-04-08T19:50:27.081Z,21.51
2018-04-08T19:52:55.554Z,21.54
2018-04-08T19:55:24.297Z,21.48
2018-04-08T19:57:53.638Z,21.43
2018-04-08T20:00:21.958Z,21.32
2018-04-08T20:02:50.962Z,21.37
2018-04-08T20:05:20.140Z,21.18
2018-04-08T20:07:49.145Z,21.26
2018-04-08T20:10:18.200Z,21.11
2018-04-08T20:12:46.576Z,21.21
2018-04-08T20:15:15.158Z,21.17
2018-04-08T20:17:43.770Z,21.07
2018-04-08T20:20:12.700Z,21.13
2018-04-08T20:22:42.755Z,21.12
2018-04-08T20:25:11.464Z,21.13
2018-04-08T20:27:40.007Z,21.14
2018-04-08T20:30:08.416Z,21.03
2018-04-08T20:32:36.997Z,20.94
2018-04-08T20:35:05.748Z,20.94
2018-04-08T20:37:34.422Z,20.85
2018-04-08T20:40:03.828Z,20.93
2018-04-08T20:42:33.229Z,20.88
2018-04-08T20:45:02.968Z,20.81
2018-04-08T20:47:31.524Z,20.70
2018-04-08T20:50:00.933Z,20.59
2018-04-08T20:52:29.385Z,20.56
2018-04-08T20:54:57.990Z,20.41
2018-04-08T20:57:27.132Z,20.21
2018-04-08T20:59:55.737Z,20.09
2018-04-08T21:02:24.113Z,20.24
2018-04-08T21:04:52.573Z,20.43
2018-04-08T21:07:20.995Z,20.44
2018-04-08T21:09:50.273Z,20.37
2018-04-08T21:12:18.600Z,20.32
2018-04-08T21:14:47.965Z,20.33
2018-04-08T21:17:16.626Z,20.32
2018-04-08T21:19:44.917Z,20.41
2018-04-08T21:22:13.224Z,20.35
2018-04-08T21:24:41.820Z,20.26
2018-04-08T21:27:11.897Z,20.24
2018-04-08T21:29:40.293Z,20.11
2018-04-08T21:32:08.608Z,20.11
2018-04-08T21:34:37.186Z,20.09
2018-04-08T21:37:05.641Z,20.10
2018-04-08T21:39:34.075Z,20.01
2018-04-08T21:42:02.659Z,19.95
2018-04-08T21:44:31.337Z,19.76
2018-04-08T21:46:59.685Z,19.65
2018-04-08T21:49:28.007Z,19.52
2018-04-08T21:51:56.415Z,19.53
2018-04-08T21:54:25.093Z,19.69
2018-04-08T21:56:53.533Z,19.75
2018-04-08T21:59:22.185Z,19.53
2018-04-08T22:01:50.560Z,19.41
2018-04-08T22:04:18.895Z,19.41
2018-04-08T22:06:47.232Z,19.30
2018-04-08T22:09:16.431Z,19.22
2018-04-08T22:11:45.595Z,19.22
2018-04-08T22:14:13.936Z,19.28
2018-04-08T22:16:42.320Z,19.17
2018-04-08T22:19:10.580Z,19.20
2018-04-08T22:21:38.967Z,19.32
2018-04-08T22:24:07.353Z,19.34
2018-04-08T22:26:35.648Z,19.28
2018-04-08T22:29:03.951Z,19.35
2018-04-08T22:31:32.525Z,19.25
2018-04-08T22:34:01.068Z,19.22
2018-04-08T22:36:29.640Z,19.17
2018-04-08T22:38:58.136Z,19.13
2018-04-08T22:41:26.780Z,19.16
2018-04-08T22:43:55.393Z,19.14
2018-04-08T22:46:24.023Z,19.05
2018-04-08T22:48:52.292Z,18.85
2018-04-08T22:51:20.721Z,18.74
2018-04-08T22:53:50.119Z,18.72
2018-04-08T22:56:19.176Z,18.62
2018-04-08T22:58:47.496Z,18.58
2018-04-08T23:01:16.682Z,18.55
2018-04-08T23:03:45.084Z,18.60
2018-04-08T23:06:14.111Z,18.81
2018-04-08T23:08:42.452Z,18.90
2018-04-08T23:11:11.724Z,18.93
2018-04-08T23:13:40.309Z,18.82
2018-04-08T23:16:08.616Z,18.78
2018-04-08T23:18:37.247Z,18.71
2018-04-08T23:21:05.572Z,18.65
2018-04-08T23:23:34.819Z,18.60
2018-04-08T23:26:03.145Z,18.60
2018-04-08T23:28:32.383Z,18.59
2018-04-08T23:31:00.715Z,18.63
2018-04-08T23:33:29.802Z,18.41
2018-04-08T23:35:58.211Z,18.47
2018-04-08T23:38:26.785Z,18.51
2018-04-08T23:40:56.012Z,18.39
2018-04-08T23:43:24.535Z,18.44
2018-04-08T23:45:53.211Z,18.50
2018-04-08T23:48:21.769Z,18.37
2018-04-08T23:50:50.719Z,18.24
2018-04-08T23:53:19.760Z,18.22
2018-04-08T23:55:48.166Z,18.24
2018-04-08T23:58:16.507Z,18.32
